createdAt,value
2022-08-22T00:01:13.045Z,20.40
2022-08-22T00:02:47.979Z,22.10
2022-08-22T00:02:49.498Z,21.50
2022-08-22T00:02:56.068Z,22.20
2022-08-22T00:03:48.794Z,20.40
2022-08-22T00:06:21.263Z,20.50
2022-08-22T00:09:04.342Z,20.50
2022-08-22T00:11:43.740Z,20.50
2022-08-22T00:14:17.595Z,20.40
2022-08-22T00:16:50.361Z,20.40
2022-08-22T00:19:30.553Z,20.40
2022-08-22T00:22:03.132Z,20.40
2022-08-22T00:24:35.496Z,20.30
2022-08-22T00:27:09.829Z,20.40
2022-08-22T00:29:39.967Z,20.30
2022-08-22T00:32:11.999Z,20.30
2022-08-22T00:34:44.665Z,20.30
2022-08-22T00:37:16.974Z,20.20
2022-08-22T00:39:49.329Z,20.20
2022-08-22T00:42:35.808Z,20.10
2022-08-22T00:45:21.937Z,19.90
2022-08-22T00:47:53.137Z,19.90
2022-08-22T00:50:34.872Z,19.80
2022-08-22T00:53:19.043Z,19.80
2022-08-22T00:55:54.951Z,19.70
2022-08-22T00:58:50.100Z,19.70
2022-08-22T01:01:22.873Z,19.70
2022-08-22T01:03:55.193Z,19.70
2022-08-22T01:06:27.782Z,19.70
2022-08-22T01:09:01.400Z,19.70
2022-08-22T01:11:47.764Z,19.70
2022-08-22T01:14:34.558Z,19.80
2022-08-22T01:17:21.545Z,19.80
2022-08-22T01:20:11.859Z,19.90
2022-08-22T01:23:10.030Z,19.90
2022-08-22T01:25:51.487Z,20.00
2022-08-22T01:28:39.803Z,20.00
2022-08-22T01:31:25.068Z,20.00
2022-08-22T01:34:19.276Z,20.10
2022-08-22T01:37:04.585Z,20.10
2022-08-22T01:39:51.054Z,20.10
2022-08-22T01:42:28.719Z,20.10
2022-08-22T01:45:20.286Z,20.00
2022-08-22T01:47:53.703Z,20.00
2022-08-22T01:50:26.572Z,19.80
2022-08-22T01:53:00.662Z,19.80
2022-08-22T01:55:32.943Z,19.80
2022-08-22T01:58:02.286Z,19.80
2022-08-22T02:00:35.437Z,19.80
2022-08-22T02:03:13.691Z,19.80
2022-08-22T02:05:48.455Z,19.70
2022-08-22T02:08:20.553Z,19.80
2022-08-22T02:10:56.260Z,19.80
2022-08-22T02:13:33.972Z,19.80
2022-08-22T02:16:08.434Z,19.70
2022-08-22T02:18:47.959Z,19.70
2022-08-22T02:21:20.249Z,19.70
2022-08-22T02:23:51.885Z,19.70
2022-08-22T02:26:22.897Z,19.70
2022-08-22T02:28:57.184Z,19.70
2022-08-22T02:31:34.513Z,19.70
2022-08-22T02:34:04.678Z,19.70
2022-08-22T02:36:41.733Z,19.70
2022-08-22T02:39:14.206Z,19.80
2022-08-22T02:41:48.714Z,19.80
2022-08-22T02:44:18.950Z,19.70
2022-08-22T02:46:50.717Z,19.70
2022-08-22T02:49:22.875Z,19.70
2022-08-22T02:52:04.197Z,19.60
2022-08-22T02:54:36.907Z,19.60
2022-08-22T02:57:09.549Z,19.60
2022-08-22T03:00:31.973Z,19.60
2022-08-22T03:03:03.671Z,19.60
2022-08-22T03:05:43.229Z,19.60
2022-08-22T03:08:15.076Z,19.60
2022-08-22T03:10:49.248Z,19.60
2022-08-22T03:13:26.066Z,19.60
2022-08-22T03:15:55.286Z,19.60
2022-08-22T03:18:27.554Z,19.50
2022-08-22T03:20:59.358Z,19.50
2022-08-22T03:23:34.757Z,19.50
2022-08-22T03:26:07.666Z,19.50
2022-08-22T03:28:39.881Z,19.60
2022-08-22T03:31:29.807Z,19.60
2022-08-22T03:34:19.023Z,19.50
2022-08-22T03:36:49.181Z,19.50
2022-08-22T03:39:20.281Z,19.50
2022-08-22T03:41:55.869Z,19.50
2022-08-22T03:44:45.246Z,19.40
2022-08-22T03:47:21.281Z,19.40
2022-08-22T03:50:08.885Z,19.50
2022-08-22T03:53:15.472Z,19.50
2022-08-22T03:56:13.804Z,19.50
2022-08-22T03:59:02.888Z,19.50
2022-08-22T04:01:48.076Z,19.60
2022-08-22T04:04:31.912Z,19.60
2022-08-22T04:07:14.259Z,19.60
2022-08-22T04:10:19.692Z,19.60
2022-08-22T04:12:59.196Z,19.50
2022-08-22T04:15:35.683Z,19.50
2022-08-22T04:18:15.562Z,19.50
2022-08-22T04:21:06.679Z,19.40
2022-08-22T04:23:48.930Z,19.40
2022-08-22T04:26:20.969Z,19.40
2022-08-22T04:28:54.491Z,19.40
2022-08-22T04:31:25.113Z,19.40
2022-08-22T04:33:58.682Z,19.40
2022-08-22T04:36:29.850Z,19.40
2022-08-22T04:39:01.061Z,19.40
2022-08-22T04:41:38.693Z,19.40
2022-08-22T04:44:13.414Z,19.40
2022-08-22T04:46:44.998Z,19.30
2022-08-22T04:49:15.520Z,19.40
2022-08-22T04:51:48.523Z,19.40
2022-08-22T04:54:31.471Z,19.30
2022-08-22T04:57:15.943Z,19.30
2022-08-22T04:59:46.087Z,19.20
2022-08-22T05:02:22.374Z,19.20
2022-08-22T05:04:53.855Z,19.10
2022-08-22T05:07:26.185Z,19.00
2022-08-22T05:10:10.864Z,18.90
2022-08-22T05:12:44.974Z,18.90
2022-08-22T05:15:22.959Z,18.80
2022-08-22T05:17:54.878Z,18.80
2022-08-22T05:20:27.848Z,18.80
2022-08-22T05:22:58.188Z,18.70
2022-08-22T05:25:31.548Z,18.70
2022-08-22T05:28:06.689Z,18.60
2022-08-22T05:30:36.995Z,18.70
2022-08-22T05:33:09.286Z,18.70
2022-08-22T05:35:49.160Z,18.70
2022-08-22T05:38:20.179Z,18.70
2022-08-22T05:40:54.848Z,18.80
2022-08-22T05:43:25.904Z,18.80
2022-08-22T05:45:57.363Z,18.80
2022-08-22T05:48:31.140Z,18.70
2022-08-22T05:51:07.016Z,18.70
2022-08-22T05:53:39.421Z,18.70
2022-08-22T05:56:10.252Z,18.70
2022-08-22T05:58:46.880Z,18.70
2022-08-22T06:01:28.965Z,18.70
2022-08-22T06:04:06.891Z,18.70
2022-08-22T06:06:44.214Z,18.70
2022-08-22T06:09:19.424Z,18.80
2022-08-22T06:11:52.737Z,18.70
2022-08-22T06:14:29.156Z,18.70
2022-08-22T06:17:03.946Z,18.70
2022-08-22T06:19:37.724Z,18.70
2022-08-22T06:22:07.086Z,18.80
2022-08-22T06:24:39.137Z,18.80
2022-08-22T06:27:13.349Z,18.70
2022-08-22T06:29:45.271Z,18.80
2022-08-22T06:32:17.303Z,18.80
2022-08-22T06:35:08.779Z,18.80
2022-08-22T06:37:47.399Z,18.80
2022-08-22T06:40:17.203Z,18.80
2022-08-22T06:42:49.957Z,18.80
2022-08-22T06:45:23.426Z,18.90
2022-08-22T06:48:21.124Z,18.90
2022-08-22T06:50:52.594Z,19.00
2022-08-22T06:53:33.406Z,19.00
2022-08-22T06:56:06.125Z,19.00
2022-08-22T06:58:39.984Z,19.00
2022-08-22T07:01:11.683Z,19.00
2022-08-22T07:03:45.106Z,19.00
2022-08-22T07:06:15.911Z,19.10
2022-08-22T07:08:45.704Z,19.10
2022-08-22T07:11:18.921Z,19.20
2022-08-22T07:13:54.271Z,19.20
2022-08-22T07:16:29.512Z,19.20
2022-08-22T07:18:59.552Z,19.30
2022-08-22T07:21:30.695Z,19.30
2022-08-22T07:24:02.299Z,19.30
2022-08-22T07:26:34.557Z,19.30
2022-08-22T07:29:10.699Z,19.30
2022-08-22T07:31:42.916Z,19.30
2022-08-22T07:34:27.615Z,19.30
2022-08-22T07:37:00.868Z,19.40
2022-08-22T07:39:31.931Z,19.40
2022-08-22T07:42:11.537Z,19.50
2022-08-22T07:44:47.940Z,19.60
2022-08-22T07:47:26.308Z,19.60
2022-08-22T07:49:59.058Z,19.60
2022-08-22T07:52:32.423Z,19.70
2022-08-22T07:55:16.438Z,19.80
2022-08-22T07:57:46.291Z,19.80
2022-08-22T08:00:16.310Z,19.90
2022-08-22T08:02:46.812Z,19.90
2022-08-22T08:05:17.685Z,19.90
2022-08-22T08:07:49.247Z,19.90
2022-08-22T08:10:20.237Z,19.90
2022-08-22T08:12:52.770Z,19.90
2022-08-22T08:15:32.370Z,19.90
2022-08-22T08:18:03.954Z,19.90
2022-08-22T08:20:35.819Z,19.90
2022-08-22T08:23:07.517Z,20.00
2022-08-22T08:25:53.459Z,20.00
2022-08-22T08:28:34.609Z,20.00
2022-08-22T08:31:19.267Z,20.00
2022-08-22T08:33:50.415Z,20.10
2022-08-22T08:36:28.200Z,20.20
2022-08-22T08:38:59.155Z,20.20
2022-08-22T08:41:36.655Z,20.30
2022-08-22T08:44:11.191Z,20.30
2022-08-22T08:46:59.945Z,20.40
2022-08-22T08:49:42.205Z,20.40
2022-08-22T08:52:30.490Z,20.50
2022-08-22T08:55:19.868Z,20.50
2022-08-22T08:58:19.320Z,20.50
2022-08-22T09:00:54.143Z,20.60
2022-08-22T09:03:45.948Z,20.60
2022-08-22T09:06:28.919Z,20.70
2022-08-22T09:09:14.429Z,20.60
2022-08-22T09:12:03.681Z,20.60
2022-08-22T09:14:53.065Z,20.60
2022-08-22T09:17:41.047Z,20.60
2022-08-22T09:20:25.991Z,20.60
2022-08-22T09:23:14.088Z,20.60
2022-08-22T09:25:50.390Z,20.70
2022-08-22T09:28:20.784Z,20.70
2022-08-22T09:31:17.075Z,20.70
2022-08-22T09:33:56.242Z,20.70
2022-08-22T09:36:26.417Z,20.80
2022-08-22T09:38:57.153Z,20.70
2022-08-22T09:41:34.015Z,20.70
2022-08-22T09:44:12.043Z,20.80
2022-08-22T09:46:47.936Z,20.70
2022-08-22T09:49:19.965Z,20.70
2022-08-22T09:51:57.425Z,20.70
2022-08-22T09:54:32.723Z,20.70
2022-08-22T09:57:10.261Z,20.60
2022-08-22T09:59:49.373Z,20.60
2022-08-22T10:02:25.933Z,20.60
2022-08-22T10:04:59.090Z,20.60
2022-08-22T10:08:00.124Z,20.60
2022-08-22T10:10:45.779Z,20.60
2022-08-22T10:13:24.456Z,20.60
2022-08-22T10:15:58.555Z,20.60
2022-08-22T10:18:34.885Z,20.60
2022-08-22T10:21:07.466Z,20.60
2022-08-22T10:23:39.987Z,20.70
2022-08-22T10:26:22.591Z,20.70
2022-08-22T10:28:57.961Z,20.70
2022-08-22T10:31:30.659Z,20.70
2022-08-22T10:34:05.210Z,20.70
2022-08-22T10:36:45.294Z,20.70
2022-08-22T10:39:20.261Z,20.70
2022-08-22T10:42:01.387Z,20.70
2022-08-22T10:44:40.172Z,20.70
2022-08-22T10:47:14.136Z,20.70
2022-08-22T10:49:47.358Z,20.70
2022-08-22T10:52:22.673Z,20.80
2022-08-22T10:54:53.109Z,20.80
2022-08-22T10:57:38.991Z,20.90
2022-08-22T11:00:13.942Z,20.90
2022-08-22T11:02:53.107Z,20.90
2022-08-22T11:05:36.680Z,20.90
2022-08-22T11:08:25.546Z,20.90
2022-08-22T11:11:01.369Z,21.00
2022-08-22T11:13:33.162Z,21.00
2022-08-22T11:16:07.915Z,21.10
2022-08-22T11:19:02.118Z,21.10
2022-08-22T11:21:47.189Z,21.10
2022-08-22T11:24:36.238Z,21.20
2022-08-22T11:27:17.610Z,21.20
2022-08-22T11:29:55.157Z,21.20
2022-08-22T11:32:34.991Z,21.30
2022-08-22T11:35:09.367Z,21.20
2022-08-22T11:37:48.668Z,21.20
2022-08-22T11:40:26.199Z,21.20
2022-08-22T11:42:59.178Z,21.10
2022-08-22T11:45:37.946Z,21.10
2022-08-22T11:48:13.837Z,21.10
2022-08-22T11:50:48.379Z,21.10
2022-08-22T11:53:21.811Z,21.10
2022-08-22T11:55:56.742Z,21.10
2022-08-22T11:58:29.126Z,21.10
2022-08-22T12:01:01.204Z,21.10
2022-08-22T12:03:45.859Z,21.20
2022-08-22T12:06:40.384Z,21.30
2022-08-22T12:09:18.689Z,21.30
2022-08-22T12:11:52.867Z,21.30
2022-08-22T12:14:28.264Z,21.30
2022-08-22T12:17:06.035Z,21.40
2022-08-22T12:20:05.755Z,21.40
2022-08-22T12:22:44.378Z,21.50
2022-08-22T12:25:25.713Z,21.60
2022-08-22T12:27:59.540Z,21.60
2022-08-22T12:30:32.654Z,21.50
2022-08-22T12:33:17.298Z,21.50
2022-08-22T12:36:07.039Z,21.50
2022-08-22T12:38:50.622Z,21.50
2022-08-22T12:41:38.141Z,21.50
2022-08-22T12:44:23.278Z,21.50
2022-08-22T12:46:57.425Z,21.50
2022-08-22T12:49:36.833Z,21.50
2022-08-22T12:52:19.801Z,21.50
2022-08-22T12:54:59.799Z,21.50
2022-08-22T12:57:33.906Z,21.40
2022-08-22T13:00:08.594Z,21.50
2022-08-22T13:02:45.021Z,21.50
2022-08-22T13:05:20.023Z,21.50
2022-08-22T13:07:54.611Z,21.50
2022-08-22T13:10:33.850Z,21.60
2022-08-22T13:13:12.256Z,21.50
2022-08-22T13:15:45.277Z,21.50
2022-08-22T13:18:29.318Z,21.50
2022-08-22T13:21:00.468Z,21.50
2022-08-22T13:23:32.937Z,21.50
2022-08-22T13:26:11.375Z,21.50
2022-08-22T13:28:43.183Z,21.50
2022-08-22T13:31:20.946Z,21.50
2022-08-22T13:33:50.202Z,21.50
2022-08-22T13:36:21.271Z,21.50
2022-08-22T13:38:55.844Z,21.50
2022-08-22T13:41:26.890Z,21.50
2022-08-22T13:44:00.960Z,21.50
2022-08-22T13:46:31.541Z,21.50
2022-08-22T13:49:08.546Z,21.50
2022-08-22T13:51:40.441Z,21.50
2022-08-22T13:54:21.756Z,21.50
2022-08-22T13:57:06.399Z,21.40
2022-08-22T13:59:51.000Z,21.40
2022-08-22T14:02:30.832Z,21.40
2022-08-22T14:05:07.688Z,21.40
2022-08-22T14:07:39.538Z,21.40
2022-08-22T14:10:14.826Z,21.40
2022-08-22T14:12:50.774Z,21.40
2022-08-22T14:15:23.514Z,21.40
2022-08-22T14:17:53.401Z,21.30
2022-08-22T14:20:32.378Z,21.40
2022-08-22T14:23:04.742Z,21.40
2022-08-22T14:25:39.270Z,21.50
2022-08-22T14:28:09.765Z,21.50
2022-08-22T14:30:40.415Z,21.60
2022-08-22T14:33:13.428Z,21.60
2022-08-22T14:35:52.879Z,21.70
2022-08-22T14:38:27.230Z,21.70
2022-08-22T14:41:05.301Z,21.70
2022-08-22T14:43:48.289Z,21.60
2022-08-22T14:46:21.135Z,21.60
2022-08-22T14:49:04.379Z,21.70
2022-08-22T14:51:32.980Z,21.70
2022-08-22T14:54:10.203Z,21.90
2022-08-22T14:56:45.332Z,21.90
2022-08-22T14:59:16.701Z,21.90
2022-08-22T15:01:54.908Z,21.90
2022-08-22T15:04:29.227Z,21.90
2022-08-22T15:06:58.863Z,21.90
2022-08-22T15:09:33.261Z,22.00
2022-08-22T15:12:04.042Z,22.00
2022-08-22T15:14:44.170Z,22.10
2022-08-22T15:17:37.440Z,22.10
2022-08-22T15:20:12.259Z,22.30
2022-08-22T15:22:45.462Z,22.30
2022-08-22T15:25:16.611Z,22.20
2022-08-22T15:27:50.189Z,22.30
2022-08-22T15:30:21.206Z,22.20
2022-08-22T15:32:50.479Z,22.10
2022-08-22T15:35:30.119Z,21.90
2022-08-22T15:38:00.175Z,21.80
2022-08-22T15:40:33.576Z,21.60
2022-08-22T15:43:13.739Z,21.50
2022-08-22T15:45:44.006Z,21.40
2022-08-22T15:48:25.072Z,21.40
2022-08-22T15:50:58.051Z,21.30
2022-08-22T15:53:27.973Z,21.20
2022-08-22T15:56:28.821Z,21.10
2022-08-22T15:59:15.795Z,21.10
2022-08-22T16:01:51.760Z,21.00
2022-08-22T16:04:33.094Z,21.00
2022-08-22T16:07:02.625Z,20.90
2022-08-22T16:09:37.605Z,20.80
2022-08-22T16:12:07.690Z,20.80
2022-08-22T16:14:47.543Z,20.80
2022-08-22T16:17:34.859Z,20.80
2022-08-22T16:20:21.943Z,20.70
2022-08-22T16:23:10.245Z,20.60
2022-08-22T16:25:57.160Z,20.60
2022-08-22T16:28:57.996Z,20.60
2022-08-22T16:31:21.782Z,20.60
2022-08-22T16:33:50.388Z,20.60
2022-08-22T16:36:37.600Z,20.50
2022-08-22T16:39:12.569Z,20.50
2022-08-22T16:41:42.729Z,20.50
2022-08-22T16:44:21.276Z,20.50
2022-08-22T16:46:51.025Z,20.40
2022-08-22T16:49:28.357Z,20.40
2022-08-22T16:52:16.518Z,20.40
2022-08-22T16:54:47.867Z,20.30
2022-08-22T16:57:23.639Z,20.40
2022-08-22T17:00:09.805Z,20.30
2022-08-22T17:02:51.850Z,20.30
2022-08-22T17:05:25.245Z,20.30
2022-08-22T17:08:05.837Z,20.20
2022-08-22T17:10:49.179Z,20.20
2022-08-22T17:13:26.430Z,20.20
2022-08-22T17:16:03.402Z,20.20
2022-08-22T17:18:42.192Z,20.20
2022-08-22T17:21:13.358Z,20.20
2022-08-22T17:23:46.032Z,20.20
2022-08-22T17:26:22.582Z,20.20
2022-08-22T17:28:56.879Z,20.20
2022-08-22T17:31:33.267Z,20.10
2022-08-22T17:34:10.559Z,20.10
2022-08-22T17:36:47.538Z,20.10
2022-08-22T17:39:24.739Z,20.10
2022-08-22T17:41:58.820Z,20.10
2022-08-22T17:44:31.860Z,20.10
2022-08-22T17:47:02.788Z,20.10
2022-08-22T17:49:35.067Z,20.10
2022-08-22T17:52:08.474Z,20.10
2022-08-22T17:54:41.296Z,20.10
2022-08-22T17:57:13.581Z,20.00
2022-08-22T17:59:48.113Z,20.10
2022-08-22T18:02:18.997Z,20.10
2022-08-22T18:04:49.413Z,20.10
2022-08-22T18:07:26.399Z,20.10
2022-08-22T18:09:58.891Z,20.10
2022-08-22T18:12:34.460Z,20.10
2022-08-22T18:15:06.691Z,20.00
2022-08-22T18:17:36.977Z,20.00
2022-08-22T18:20:10.379Z,20.00
2022-08-22T18:22:44.893Z,20.10
2022-08-22T18:25:27.451Z,20.10
2022-08-22T18:27:58.580Z,20.00
2022-08-22T18:30:29.076Z,20.00
2022-08-22T18:33:00.554Z,20.00
2022-08-22T18:35:32.641Z,20.00
2022-08-22T18:38:03.919Z,19.90
2022-08-22T18:40:51.292Z,19.90
2022-08-22T18:43:24.298Z,20.00
2022-08-22T18:46:02.806Z,20.00
2022-08-22T18:48:45.982Z,20.00
2022-08-22T18:51:25.155Z,20.00
2022-08-22T18:53:56.022Z,20.00
2022-08-22T18:56:48.442Z,19.90
2022-08-22T18:59:31.860Z,20.00
2022-08-22T19:02:08.555Z,20.00
2022-08-22T19:04:48.359Z,20.00
2022-08-22T19:07:31.726Z,20.00
2022-08-22T19:10:11.428Z,20.00
2022-08-22T19:12:48.101Z,20.00
2022-08-22T19:15:21.511Z,20.00
2022-08-22T19:18:02.882Z,20.00
2022-08-22T19:20:49.863Z,20.00
2022-08-22T19:23:37.333Z,20.00
2022-08-22T19:26:20.553Z,20.00
2022-08-22T19:28:49.055Z,20.00
2022-08-22T19:31:23.704Z,20.10
2022-08-22T19:34:13.681Z,20.10
2022-08-22T19:36:42.373Z,20.10
2022-08-22T19:39:12.103Z,20.10
2022-08-22T19:41:50.940Z,20.10
2022-08-22T19:44:33.527Z,20.10
2022-08-22T19:47:04.781Z,20.10
2022-08-22T19:49:37.316Z,20.10
2022-08-22T19:52:12.377Z,20.10
2022-08-22T19:54:48.077Z,20.10
2022-08-22T19:57:19.937Z,20.00
2022-08-22T19:59:53.179Z,20.00
2022-08-22T20:02:26.502Z,20.00
2022-08-22T20:05:03.750Z,20.00
2022-08-22T20:07:39.470Z,20.00
2022-08-22T20:10:15.457Z,20.00
2022-08-22T20:12:52.522Z,20.00
2022-08-22T20:15:24.027Z,20.00
2022-08-22T20:23:39.246Z,20.00
2022-08-22T20:26:08.486Z,20.00
2022-08-22T20:28:41.106Z,20.00
2022-08-22T20:39:03.895Z,19.70
2022-08-22T20:45:20.072Z,19.60
2022-08-22T20:55:24.264Z,19.40
2022-08-22T20:57:59.103Z,19.50
2022-08-22T21:00:31.848Z,19.30
2022-08-22T21:03:03.282Z,19.30
2022-08-22T21:05:34.660Z,19.20
2022-08-22T21:08:06.020Z,19.30
2022-08-22T21:10:52.954Z,19.30
2022-08-22T21:21:17.790Z,19.10
2022-08-22T21:23:47.815Z,19.10
2022-08-22T21:26:22.535Z,19.10
2022-08-22T21:29:10.371Z,19.00
2022-08-22T21:31:44.266Z,19.00
2022-08-22T21:34:14.578Z,19.00
2022-08-22T21:36:44.950Z,19.10
